AGROMETEOROLOŠKI PORTAL

vinorodna pokrajina

Temelj dobrega kmetovanja

Pregled podatkov za lokacijo Vipolže, meteorološka postaja 44544

Pregled senzorjev na lokaciji

ID Ime Zadnja
vrednost
Datum in čas
meritve
(lokalni čas)
Tip
senzorja
3085 Omočenost lista (1,5 m) (U) 0 U 4.2.2023 22:00 A730WET
5081 Padavine (mm) 0 mm 4.2.2023 22:00 Generic 0.2 mm
3084 Relativna zračna vlaga (2 m) (%RH) 34 %RH 4.2.2023 22:00 50YA
3083 Temperatura (2 m) (°C) 8,1 °C 4.2.2023 22:00 50YA
6601 Hitrost vetra (3 m) (km/h) 5 km/h 4.2.2023 22:00 Generic 200 km/h

Pregled podatkov zadnjih 24 ur

Zap.
št.
Datum in čas
(lokalni čas)
Vipolže
Omočenost
lista
(1,5
m)
Padavine Relativna
zračna
vlaga
(2
m)
Temperatura
(2
m)
Hitrost
vetra
(3
m)
1 4.2.2023 22:00 0 0 34,3 8,1 5,4
2 4.2.2023 21:30 0 0 36,4 7,8 4,1
3 4.2.2023 21:00 0 0 35,5 8,3 6,3
4 4.2.2023 20:30 0 0 34 8,8 9,1
5 4.2.2023 20:00 0 0 34,8 8,7 6,4
6 4.2.2023 19:30 0 0 38,4 8,1 4,5
7 4.2.2023 19:00 0 0 38,1 8,3 4,3
8 4.2.2023 18:30 0 0 37,5 8,7 4,4
9 4.2.2023 18:00 0 0 29,7 10,9 5,8
10 4.2.2023 17:30 0 0 43,4 11,2 5,1
11 4.2.2023 17:00 0 0 57,2 12 3,6
12 4.2.2023 16:30 0 0 52,4 13,4 4
13 4.2.2023 16:00 0 0 49,1 13,9 4,6
14 4.2.2023 15:30 0 0 50,1 14 6,2
15 4.2.2023 15:00 0 0 52,5 13,9 6,7
16 4.2.2023 14:30 0 0 52,2 14,2 5,3
17 4.2.2023 14:00 0 0 54,5 13,7 5,2
18 4.2.2023 13:30 0 0 56,5 13,1 5,5
19 4.2.2023 13:00 0 0 59,4 12,5 5,1
20 4.2.2023 12:30 0 0 61 11,7 3,6
21 4.2.2023 12:00 0 0 64 11 6,1
22 4.2.2023 11:30 0 0 65,7 10,7 3,8
23 4.2.2023 11:00 0 0 70,4 9,3 6,3
24 4.2.2023 10:30 0 0 75,2 8 3
25 4.2.2023 10:00 0 0 81,9 5,8 5
26 4.2.2023 09:30 5 0 88,7 3,1 4
27 4.2.2023 09:00 9 0 91,3 1,4 3,2
28 4.2.2023 08:30 10 0 93,5 1 4,1
29 4.2.2023 08:00 4 0 94,4 0 4,9
30 4.2.2023 07:30 2 0 94,4 -0,8 4,5
31 4.2.2023 07:00 1 0 94,2 -1,5 3,9
32 4.2.2023 06:30 1 0 94,1 -1,5 3,7
33 4.2.2023 06:00 1 0 94 -1,6 4,6
34 4.2.2023 05:30 2 0 94,3 -0,7 4,9
35 4.2.2023 05:00 2 0 94 -1,4 2,4
36 4.2.2023 04:30 3 0 94,1 -0,8 4
37 4.2.2023 04:00 2 0 94,2 -1 3,8
38 4.2.2023 03:30 2 0 94 -1 2,4
39 4.2.2023 03:00 6 0 93,9 -1 2,7
40 4.2.2023 02:30 10 0 93,7 -0,6 2,6
41 4.2.2023 02:00 10 0 93,7 -0,4 3,3
42 4.2.2023 01:30 10 0 93,3 -0,2 3,8
43 4.2.2023 01:00 10 0 93,1 0,2 2,9
44 4.2.2023 00:30 10 0 93 0,5 4,8
45 4.2.2023 00:00 10 0 92,5 0,8 2,6
46 3.2.2023 23:30 10 0 92 1,1 3,7
47 3.2.2023 23:00 10 0 91,8 1,5 2,6
48 3.2.2023 22:30 10 0 91,3 1,6 4,4